Time;durP1;ratioP1;P1;durP2;ratioP2;P2;SDS_P1;SDS_P2;PMS_P1;PMS_P2;Temp;Humidity;BMP_temperature;BMP_pressure;BME280_temperature;BME280_humidity;BME280_pressure;Samples;Min_cycle;Max_cycle;Signal;HPM_P1;HPM_P2
2023/05/24 00:00:21;;;;;;;;;;;12.00;99.90;;;;;;5023442;28;19967;-66
2023/05/24 00:02:48;;;;;;;;;;;11.90;99.90;;;;;;5022796;28;19928;-67
2023/05/24 00:05:17;;;;;;;;;;;11.90;99.90;;;;;;5023210;28;20217;-67
2023/05/24 00:07:44;;;;;;;;;;;11.80;99.90;;;;;;5022709;28;19929;-67
2023/05/24 00:10:11;;;;;;;;;;;11.60;99.90;;;;;;5023614;28;19921;-67
2023/05/24 00:12:38;;;;;;;;;;;11.50;99.90;;;;;;5022711;28;19921;-67
2023/05/24 00:15:05;;;;;;;;;;;11.40;99.90;;;;;;5022872;28;20256;-68
2023/05/24 00:17:33;;;;;;;;;;;11.40;99.90;;;;;;5023135;28;19925;-67
2023/05/24 00:20:00;;;;;;;;;;;11.30;99.90;;;;;;5023510;28;19921;-67
2023/05/24 00:22:28;;;;;;;;;;;11.30;99.90;;;;;;5023013;28;19977;-67
2023/05/24 00:24:54;;;;;;;;;;;11.30;99.90;;;;;;5022717;28;20272;-67
2023/05/24 00:27:21;;;;;;;;;;;11.30;99.90;;;;;;5022967;28;19984;-68
2023/05/24 00:29:48;;;;;;;;;;;11.30;99.90;;;;;;5023421;28;19988;-67
2023/05/24 00:32:14;;;;;;;;;;;11.30;99.90;;;;;;5022871;28;19928;-67
2023/05/24 00:34:41;;;;;;;;;;;11.20;99.90;;;;;;5011392;28;19989;-67
2023/05/24 00:37:08;;;;;;;;;;;11.20;99.90;;;;;;5022796;28;19949;-67
2023/05/24 00:39:36;;;;;;;;;;;11.20;99.90;;;;;;5022935;28;19921;-67
2023/05/24 00:42:02;;;;;;;;;;;11.20;99.90;;;;;;5024868;28;19921;-67
2023/05/24 00:44:29;;;;;;;;;;;11.20;99.90;;;;;;5028037;28;19921;-67
2023/05/24 00:46:56;;;;;;;;;;;11.20;99.90;;;;;;5002571;28;19988;-67
2023/05/24 00:49:23;;;;;;;;;;;11.20;99.90;;;;;;5006297;28;20270;-68
2023/05/24 00:51:50;;;;;;;;;;;11.20;99.90;;;;;;5023010;28;20024;-67
2023/05/24 00:54:16;;;;;;;;;;;11.10;99.90;;;;;;5022716;28;19922;-68
2023/05/24 00:56:44;;;;;;;;;;;11.10;99.90;;;;;;5022589;28;19922;-67
2023/05/24 00:59:11;;;;;;;;;;;11.10;99.90;;;;;;5022754;28;20238;-67
2023/05/24 01:01:37;;;;;;;;;;;11.00;99.90;;;;;;5022140;28;19960;-67
2023/05/24 01:04:04;;;;;;;;;;;10.90;99.90;;;;;;5022146;28;19953;-67
2023/05/24 01:06:32;;;;;;;;;;;10.80;99.90;;;;;;5022373;28;19988;-67
2023/05/24 01:09:08;;;;;;;;;;;10.80;99.90;;;;;;5022904;28;19921;-67
2023/05/24 01:11:40;;;;;;;;;;;10.80;99.90;;;;;;5022343;28;19921;-67
2023/05/24 01:14:13;;;;;;;;;;;10.80;99.90;;;;;;5022250;28;20013;-67
2023/05/24 01:16:45;;;;;;;;;;;10.80;99.90;;;;;;5025685;28;19921;-67
2023/05/24 01:19:26;;;;;;;;;;;10.70;99.90;;;;;;5026430;28;19921;-68
2023/05/24 01:22:00;;;;;;;;;;;10.80;99.90;;;;;;5026184;28;19922;-67
2023/05/24 01:24:30;;;;;;;;;;;10.80;99.90;;;;;;5026026;28;20284;-67
2023/05/24 01:27:06;;;;;;;;;;;10.80;99.90;;;;;;5025366;28;19921;-67
2023/05/24 01:29:34;;;;;;;;;;;10.80;99.90;;;;;;5026321;28;19964;-67
2023/05/24 01:32:01;;;;;;;;;;;10.80;99.90;;;;;;5039541;28;19921;-67
2023/05/24 01:34:27;;;;;;;;;;;10.70;99.90;;;;;;5045074;28;19928;-67
2023/05/24 01:36:54;;;;;;;;;;;10.60;99.90;;;;;;5045294;28;19980;-67
2023/05/24 01:39:21;;;;;;;;;;;10.60;99.90;;;;;;5045911;28;19992;-67
2023/05/24 01:41:53;;;;;;;;;;;10.60;99.90;;;;;;5045579;28;19927;-67
2023/05/24 01:44:27;;;;;;;;;;;10.50;99.90;;;;;;5044469;28;19972;-68
2023/05/24 01:46:58;;;;;;;;;;;10.50;99.90;;;;;;5045147;28;19928;-67
2023/05/24 01:49:26;;;;;;;;;;;10.50;99.90;;;;;;5045675;28;19922;-67
2023/05/24 01:51:54;;;;;;;;;;;10.50;99.90;;;;;;5045452;28;19921;-67
2023/05/24 01:54:23;;;;;;;;;;;10.50;99.90;;;;;;5044514;28;19984;-68
2023/05/24 01:56:52;;;;;;;;;;;10.50;99.90;;;;;;5044623;28;20201;-67
2023/05/24 01:59:20;;;;;;;;;;;10.50;99.90;;;;;;5045623;28;19943;-68
2023/05/24 02:01:48;;;;;;;;;;;10.50;99.90;;;;;;5043475;28;19921;-66
2023/05/24 02:04:15;;;;;;;;;;;10.50;99.90;;;;;;5024550;28;19921;-68
2023/05/24 02:06:42;;;;;;;;;;;10.50;99.90;;;;;;5025237;28;19921;-67
2023/05/24 02:09:08;;;;;;;;;;;10.50;99.90;;;;;;5025481;28;19992;-67
2023/05/24 02:11:35;;;;;;;;;;;10.40;99.90;;;;;;5025260;28;20177;-67
2023/05/24 02:14:01;;;;;;;;;;;10.30;99.90;;;;;;5042323;28;19988;-67
2023/05/24 02:16:29;;;;;;;;;;;10.30;99.90;;;;;;5044348;28;20153;-67
2023/05/24 02:18:57;;;;;;;;;;;10.30;99.90;;;;;;5045268;28;19968;-67
2023/05/24 02:21:24;;;;;;;;;;;10.30;99.90;;;;;;5045271;28;19921;-68
2023/05/24 02:23:51;;;;;;;;;;;10.30;99.90;;;;;;5044701;28;19964;-67
2023/05/24 02:26:18;;;;;;;;;;;10.30;99.90;;;;;;5042818;28;19929;-67
2023/05/24 02:28:44;;;;;;;;;;;10.20;99.90;;;;;;5044962;28;19921;-67
2023/05/24 02:31:11;;;;;;;;;;;10.30;99.90;;;;;;5044982;28;19963;-67
2023/05/24 02:33:38;;;;;;;;;;;10.20;99.90;;;;;;5036656;28;19980;-67
2023/05/24 02:36:06;;;;;;;;;;;10.20;99.90;;;;;;5022718;28;19922;-67
2023/05/24 02:38:33;;;;;;;;;;;10.20;99.90;;;;;;5024826;28;19922;-67
2023/05/24 02:40:59;;;;;;;;;;;10.20;99.90;;;;;;5025005;28;20144;-67
2023/05/24 02:43:26;;;;;;;;;;;10.20;99.90;;;;;;5024671;28;19992;-67
2023/05/24 02:45:53;;;;;;;;;;;10.20;99.90;;;;;;5024517;28;20003;-68
2023/05/24 02:48:19;;;;;;;;;;;10.20;99.90;;;;;;5024264;28;19989;-67
2023/05/24 02:50:46;;;;;;;;;;;10.20;99.90;;;;;;5024808;28;19922;-67
2023/05/24 02:53:14;;;;;;;;;;;10.20;99.90;;;;;;5024315;28;19988;-67
2023/05/24 02:55:42;;;;;;;;;;;10.20;99.90;;;;;;5042172;28;19944;-67
2023/05/24 02:58:09;;;;;;;;;;;10.20;99.90;;;;;;5043624;28;20204;-68
2023/05/24 03:00:36;;;;;;;;;;;10.30;99.90;;;;;;5044175;28;19968;-66
2023/05/24 03:03:02;;;;;;;;;;;10.30;99.90;;;;;;5044133;28;19993;-67
2023/05/24 03:05:29;;;;;;;;;;;10.30;99.90;;;;;;5043448;28;20267;-67
2023/05/24 03:07:55;;;;;;;;;;;10.30;99.90;;;;;;5043623;28;19922;-67
2023/05/24 03:10:23;;;;;;;;;;;10.30;99.90;;;;;;5044053;28;19921;-68
2023/05/24 03:12:50;;;;;;;;;;;10.30;99.90;;;;;;5043638;28;20304;-67
2023/05/24 03:15:16;;;;;;;;;;;10.30;99.90;;;;;;5026197;28;20001;-68
2023/05/24 03:17:43;;;;;;;;;;;10.30;99.90;;;;;;5023752;28;19921;-67
2023/05/24 03:20:11;;;;;;;;;;;10.20;99.90;;;;;;5024271;28;19928;-67
2023/05/24 03:22:37;;;;;;;;;;;10.20;99.90;;;;;;5027098;28;20148;-67
2023/05/24 03:25:07;;;;;;;;;;;10.20;99.90;;;;;;5043667;28;19988;-67
2023/05/24 03:27:35;;;;;;;;;;;10.30;99.90;;;;;;5043559;28;19921;-66
2023/05/24 03:30:02;;;;;;;;;;;10.20;99.90;;;;;;5043585;28;20209;-66
2023/05/24 03:32:29;;;;;;;;;;;10.20;99.90;;;;;;5033813;28;19921;-67
2023/05/24 03:34:56;;;;;;;;;;;10.20;99.90;;;;;;5023796;28;19960;-67
2023/05/24 03:37:22;;;;;;;;;;;10.20;99.90;;;;;;5022895;28;19975;-67
2023/05/24 03:39:49;;;;;;;;;;;10.30;99.90;;;;;;5023977;28;19928;-66
2023/05/24 03:42:16;;;;;;;;;;;10.30;99.90;;;;;;5023937;28;19980;-67
2023/05/24 03:44:44;;;;;;;;;;;10.30;99.90;;;;;;5037148;28;19956;-67
2023/05/24 03:47:10;;;;;;;;;;;10.30;99.90;;;;;;5042587;28;20127;-67
2023/05/24 03:49:37;;;;;;;;;;;10.30;99.90;;;;;;5043351;28;20267;-67
2023/05/24 03:52:04;;;;;;;;;;;10.30;99.90;;;;;;5043630;28;19988;-67
2023/05/24 03:54:30;;;;;;;;;;;10.30;99.90;;;;;;5043403;28;20136;-67
2023/05/24 03:56:57;;;;;;;;;;;10.30;99.90;;;;;;5042379;28;20177;-67
2023/05/24 03:59:23;;;;;;;;;;;10.40;99.90;;;;;;5043493;28;19988;-67
2023/05/24 04:01:51;;;;;;;;;;;10.40;99.90;;;;;;5043421;28;20153;-67
2023/05/24 04:04:18;;;;;;;;;;;10.40;99.90;;;;;;5042754;28;19927;-67
2023/05/24 04:06:45;;;;;;;;;;;10.40;99.90;;;;;;5042684;28;20012;-66
2023/05/24 04:09:11;;;;;;;;;;;10.40;99.90;;;;;;5043225;28;19979;-67
2023/05/24 04:11:38;;;;;;;;;;;10.40;99.90;;;;;;5043368;28;19988;-67
2023/05/24 04:14:05;;;;;;;;;;;10.30;99.90;;;;;;5042812;28;19988;-67
2023/05/24 04:16:32;;;;;;;;;;;10.30;99.90;;;;;;5023043;28;19925;-67
2023/05/24 04:19:02;;;;;;;;;;;10.30;99.90;;;;;;5023558;28;19922;-67
2023/05/24 04:21:29;;;;;;;;;;;10.30;99.90;;;;;;5023193;28;19921;-68
2023/05/24 04:23:56;;;;;;;;;;;10.30;99.90;;;;;;5023502;28;20061;-67
2023/05/24 04:26:23;;;;;;;;;;;10.40;99.90;;;;;;5022437;28;19956;-67
2023/05/24 04:28:50;;;;;;;;;;;10.30;99.90;;;;;;5022946;28;19953;-67
2023/05/24 04:31:17;;;;;;;;;;;10.20;99.90;;;;;;5023431;28;19929;-66
2023/05/24 04:33:43;;;;;;;;;;;10.20;99.90;;;;;;5023189;28;20163;-67
2023/05/24 04:36:12;;;;;;;;;;;10.20;99.90;;;;;;5022236;28;19989;-66
2023/05/24 04:38:39;;;;;;;;;;;10.20;99.90;;;;;;5022656;28;19922;-67
2023/05/24 04:41:06;;;;;;;;;;;10.30;99.90;;;;;;5023342;28;19922;-67
2023/05/24 04:43:33;;;;;;;;;;;10.30;99.90;;;;;;5015174;28;19921;-68
2023/05/24 04:46:00;;;;;;;;;;;10.30;99.90;;;;;;5022665;28;19957;-68
2023/05/24 04:48:27;;;;;;;;;;;10.30;99.90;;;;;;5023279;28;19928;-67
2023/05/24 04:50:54;;;;;;;;;;;10.20;99.90;;;;;;5025169;28;19921;-67
2023/05/24 04:53:22;;;;;;;;;;;10.20;99.90;;;;;;5026988;28;19921;-66
2023/05/24 04:55:49;;;;;;;;;;;10.30;99.90;;;;;;5026264;28;19930;-69
2023/05/24 04:58:16;;;;;;;;;;;10.10;99.90;;;;;;5025969;28;19921;-67
2023/05/24 05:00:43;;;;;;;;;;;10.20;99.90;;;;;;5026884;28;19964;-67
2023/05/24 05:03:10;;;;;;;;;;;10.10;99.90;;;;;;5026523;28;20236;-67
2023/05/24 05:05:37;;;;;;;;;;;10.20;99.90;;;;;;5026283;28;19945;-67
2023/05/24 05:08:03;;;;;;;;;;;10.20;99.90;;;;;;5025479;28;19953;-67
2023/05/24 05:10:31;;;;;;;;;;;10.20;99.90;;;;;;5026400;28;20169;-67
2023/05/24 05:12:58;;;;;;;;;;;10.20;99.90;;;;;;5026768;28;19921;-67
2023/05/24 05:15:25;;;;;;;;;;;10.20;99.90;;;;;;5026309;28;19996;-67
2023/05/24 05:17:51;;;;;;;;;;;10.10;99.90;;;;;;5037734;28;19987;-67
2023/05/24 05:20:18;;;;;;;;;;;10.20;99.90;;;;;;5045774;28;19953;-67
2023/05/24 05:22:45;;;;;;;;;;;10.30;99.90;;;;;;5046294;28;20090;-66
2023/05/24 05:25:12;;;;;;;;;;;10.20;99.90;;;;;;5046123;28;19936;-67
2023/05/24 05:27:40;;;;;;;;;;;10.30;99.90;;;;;;5045260;28;19921;-67
2023/05/24 05:30:07;;;;;;;;;;;10.30;99.90;;;;;;5045873;28;19921;-68
2023/05/24 05:32:34;;;;;;;;;;;10.40;99.90;;;;;;5046116;28;19945;-69
2023/05/24 05:35:00;;;;;;;;;;;10.40;99.90;;;;;;5045682;28;19921;-67
2023/05/24 05:37:28;;;;;;;;;;;10.40;99.90;;;;;;5045650;28;20000;-66
2023/05/24 05:39:55;;;;;;;;;;;10.40;99.90;;;;;;5044909;28;20176;-66
2023/05/24 05:42:21;;;;;;;;;;;10.50;99.90;;;;;;5023817;28;20257;-66
2023/05/24 05:44:51;;;;;;;;;;;10.50;99.90;;;;;;5025172;28;19984;-68
2023/05/24 05:47:17;;;;;;;;;;;10.50;99.90;;;;;;5024910;28;19921;-67
2023/05/24 05:49:44;;;;;;;;;;;10.60;99.90;;;;;;5043319;28;19935;-66
2023/05/24 05:52:11;;;;;;;;;;;10.60;99.90;;;;;;5040626;28;19955;-67
2023/05/24 05:54:37;;;;;;;;;;;10.60;99.90;;;;;;5025359;28;19922;-67
2023/05/24 05:57:04;;;;;;;;;;;10.70;99.90;;;;;;5025345;28;19921;-67
2023/05/24 05:59:34;;;;;;;;;;;10.60;99.90;;;;;;5024375;28;19929;-66
2023/05/24 06:02:02;;;;;;;;;;;10.50;99.90;;;;;;5024706;28;19928;-67
2023/05/24 06:04:29;;;;;;;;;;;10.60;99.90;;;;;;5025005;28;20173;-66
2023/05/24 06:06:55;;;;;;;;;;;10.60;99.90;;;;;;5024336;28;19952;-67
2023/05/24 06:09:22;;;;;;;;;;;10.60;99.90;;;;;;5032291;28;19959;-66
2023/05/24 06:11:49;;;;;;;;;;;10.50;99.90;;;;;;5025622;28;19921;-67
2023/05/24 06:14:17;;;;;;;;;;;10.60;99.90;;;;;;5024867;28;20322;-68
2023/05/24 06:16:44;;;;;;;;;;;10.60;99.90;;;;;;5025056;28;19928;-67
2023/05/24 06:19:13;;;;;;;;;;;10.60;99.90;;;;;;5028553;28;19921;-68
2023/05/24 06:21:46;;;;;;;;;;;10.70;99.90;;;;;;5040034;28;19980;-67
2023/05/24 06:24:13;;;;;;;;;;;10.70;99.90;;;;;;5024602;28;19960;-67
2023/05/24 06:26:40;;;;;;;;;;;10.70;99.90;;;;;;5024621;28;19922;-67
2023/05/24 06:29:07;;;;;;;;;;;10.60;99.90;;;;;;5024280;28;19927;-66
2023/05/24 06:31:34;;;;;;;;;;;10.60;99.90;;;;;;5024721;28;20112;-67
2023/05/24 06:34:00;;;;;;;;;;;10.60;99.90;;;;;;5015536;28;19922;-66
2023/05/24 06:36:28;;;;;;;;;;;10.50;99.90;;;;;;5022263;28;19922;-67
2023/05/24 06:38:55;;;;;;;;;;;10.40;99.90;;;;;;5024799;28;19921;-66
2023/05/24 06:41:22;;;;;;;;;;;10.40;99.90;;;;;;5029713;28;19928;-66
2023/05/24 06:43:49;;;;;;;;;;;10.40;99.90;;;;;;5024546;28;19921;-67
2023/05/24 06:46:15;;;;;;;;;;;10.40;99.90;;;;;;5023715;28;19989;-67
2023/05/24 06:48:42;;;;;;;;;;;10.40;99.90;;;;;;5024877;28;19984;-67
2023/05/24 06:51:09;;;;;;;;;;;10.30;99.90;;;;;;5023679;28;19960;-68
2023/05/24 06:53:37;;;;;;;;;;;10.30;99.90;;;;;;5023806;28;20229;-67
2023/05/24 06:56:04;;;;;;;;;;;10.30;99.90;;;;;;5023982;28;19921;-67
2023/05/24 06:58:30;;;;;;;;;;;10.40;99.90;;;;;;5024296;28;19921;-67
2023/05/24 07:00:57;;;;;;;;;;;10.30;99.90;;;;;;5023772;28;19980;-67
2023/05/24 07:03:23;;;;;;;;;;;10.20;99.90;;;;;;5024112;28;19921;-68
2023/05/24 07:05:50;;;;;;;;;;;10.20;99.90;;;;;;5023865;28;19988;-68
2023/05/24 07:08:17;;;;;;;;;;;10.30;99.90;;;;;;5024027;28;19959;-67
2023/05/24 07:10:45;;;;;;;;;;;10.30;99.90;;;;;;5024884;28;19984;-67
2023/05/24 07:13:12;;;;;;;;;;;10.40;99.90;;;;;;5025688;28;20269;-67
2023/05/24 07:15:40;;;;;;;;;;;10.40;99.90;;;;;;5023657;28;19921;-67
2023/05/24 07:18:06;;;;;;;;;;;10.20;99.90;;;;;;5023583;28;19953;-67
2023/05/24 07:20:33;;;;;;;;;;;10.20;99.90;;;;;;5023949;28;19944;-67
2023/05/24 07:23:00;;;;;;;;;;;10.30;99.90;;;;;;5023076;28;19997;-67
2023/05/24 07:25:27;;;;;;;;;;;10.40;99.90;;;;;;5023848;28;19922;-67
2023/05/24 07:27:55;;;;;;;;;;;10.40;99.90;;;;;;5023501;28;19964;-67
2023/05/24 07:30:21;;;;;;;;;;;10.50;99.90;;;;;;5024302;28;19996;-67
2023/05/24 07:32:48;;;;;;;;;;;10.60;99.90;;;;;;5023158;28;20288;-67
2023/05/24 07:35:15;;;;;;;;;;;10.60;99.90;;;;;;5023319;28;19929;-67
2023/05/24 07:37:41;;;;;;;;;;;10.70;99.90;;;;;;5023384;28;19992;-67
2023/05/24 07:40:10;;;;;;;;;;;10.70;99.90;;;;;;5023682;28;19922;-67
2023/05/24 07:42:37;;;;;;;;;;;10.60;99.90;;;;;;5027231;28;20040;-67
2023/05/24 07:45:05;;;;;;;;;;;10.60;99.90;;;;;;5022072;28;19949;-66
2023/05/24 07:47:32;;;;;;;;;;;10.60;99.90;;;;;;5022131;28;20071;-68
2023/05/24 07:49:59;;;;;;;;;;;10.50;99.90;;;;;;5023587;28;19996;-66
2023/05/24 07:52:25;;;;;;;;;;;10.60;99.90;;;;;;5020285;28;19928;-67
2023/05/24 07:54:52;;;;;;;;;;;10.50;99.90;;;;;;5022668;28;19948;-67
2023/05/24 07:57:18;;;;;;;;;;;10.60;99.90;;;;;;5022514;28;20261;-67
2023/05/24 07:59:45;;;;;;;;;;;10.60;99.90;;;;;;5023867;28;19989;-66
2023/05/24 08:02:14;;;;;;;;;;;10.50;99.90;;;;;;5021507;28;19953;-67
2023/05/24 08:04:40;;;;;;;;;;;10.50;99.90;;;;;;5022874;28;19985;-68
2023/05/24 08:07:08;;;;;;;;;;;10.60;99.90;;;;;;5023122;28;19921;-66
2023/05/24 08:09:37;;;;;;;;;;;10.50;99.90;;;;;;5023289;28;19925;-67
2023/05/24 08:12:03;;;;;;;;;;;10.50;99.90;;;;;;5023591;28;19922;-67
2023/05/24 08:14:30;;;;;;;;;;;10.50;99.90;;;;;;5022458;28;19921;-67
2023/05/24 08:16:57;;;;;;;;;;;10.50;99.90;;;;;;5022498;28;19996;-66
2023/05/24 08:19:25;;;;;;;;;;;10.50;99.90;;;;;;5023189;28;19948;-67
2023/05/24 08:21:51;;;;;;;;;;;10.40;99.90;;;;;;5023496;28;19956;-67
2023/05/24 08:24:20;;;;;;;;;;;10.40;99.90;;;;;;5024138;28;19928;-67
2023/05/24 08:26:46;;;;;;;;;;;10.40;99.90;;;;;;5026691;28;19921;-67
2023/05/24 08:29:13;;;;;;;;;;;10.30;99.90;;;;;;5027171;28;19988;-67
2023/05/24 08:31:40;;;;;;;;;;;10.40;99.90;;;;;;5026546;28;19921;-67
2023/05/24 08:34:06;;;;;;;;;;;10.50;99.90;;;;;;5026159;28;19985;-67
2023/05/24 08:36:34;;;;;;;;;;;10.60;99.90;;;;;;5026515;28;19952;-67
2023/05/24 08:39:01;;;;;;;;;;;10.60;99.90;;;;;;5027108;28;19929;-67
2023/05/24 08:44:31;;;;;;;;;;;10.70;99.90;;;;;;5024411;28;19927;-66
2023/05/24 08:50:01;;;;;;;;;;;10.80;99.90;;;;;;5026091;28;19951;-66
2023/05/24 08:52:29;;;;;;;;;;;10.70;99.90;;;;;;5026729;28;19947;-67
2023/05/24 08:54:56;;;;;;;;;;;10.80;99.90;;;;;;5026811;28;19921;-67
2023/05/24 08:57:23;;;;;;;;;;;10.90;99.90;;;;;;5025273;28;19922;-65
2023/05/24 08:59:49;;;;;;;;;;;10.90;99.90;;;;;;5026663;28;20169;-67
2023/05/24 09:02:16;;;;;;;;;;;11.00;99.90;;;;;;5026166;28;20201;-66
2023/05/24 09:04:44;;;;;;;;;;;11.00;99.90;;;;;;5026743;28;19988;-66
2023/05/24 09:07:12;;;;;;;;;;;11.00;99.90;;;;;;5025783;28;20259;-66
2023/05/24 09:09:43;;;;;;;;;;;11.00;99.90;;;;;;5026461;28;20018;-67
2023/05/24 09:12:11;;;;;;;;;;;11.00;99.90;;;;;;5026661;28;20121;-66
2023/05/24 09:14:38;;;;;;;;;;;10.90;99.90;;;;;;5026258;28;20140;-67
2023/05/24 09:17:05;;;;;;;;;;;11.00;99.90;;;;;;5025811;28;19928;-66
2023/05/24 09:19:32;;;;;;;;;;;11.10;99.90;;;;;;5024944;28;20317;-66
2023/05/24 09:21:59;;;;;;;;;;;11.20;99.90;;;;;;5026535;28;19993;-66
2023/05/24 09:24:25;;;;;;;;;;;11.10;99.90;;;;;;5025402;28;20008;-66
2023/05/24 09:26:53;;;;;;;;;;;11.10;99.90;;;;;;5025099;28;20169;-66
2023/05/24 09:29:21;;;;;;;;;;;11.10;99.90;;;;;;5025881;28;20274;-66
2023/05/24 09:31:48;;;;;;;;;;;11.10;99.90;;;;;;5025714;28;20004;-66
2023/05/24 09:34:15;;;;;;;;;;;11.20;99.90;;;;;;5025701;28;19953;-66
2023/05/24 09:36:42;;;;;;;;;;;11.30;99.90;;;;;;5023395;28;19921;-66
2023/05/24 09:39:10;;;;;;;;;;;11.30;99.90;;;;;;5026307;28;19960;-66
2023/05/24 09:41:37;;;;;;;;;;;11.20;99.90;;;;;;5025387;28;19928;-68
2023/05/24 09:44:06;;;;;;;;;;;11.20;99.90;;;;;;5025563;28;19960;-66
2023/05/24 09:46:37;;;;;;;;;;;11.20;99.90;;;;;;5024063;28;19925;-66
2023/05/24 09:49:05;;;;;;;;;;;11.20;99.90;;;;;;5025904;28;19925;-66
2023/05/24 09:51:33;;;;;;;;;;;11.20;99.90;;;;;;5025320;28;19928;-66
2023/05/24 09:54:01;;;;;;;;;;;11.20;99.90;;;;;;5025534;28;19927;-66
2023/05/24 09:56:27;;;;;;;;;;;11.30;99.90;;;;;;5024949;28;20121;-68
2023/05/24 09:58:55;;;;;;;;;;;11.30;99.90;;;;;;5022692;28;19922;-66
2023/05/24 10:01:25;;;;;;;;;;;11.30;99.90;;;;;;5025532;28;19929;-66
2023/05/24 10:03:52;;;;;;;;;;;11.30;99.90;;;;;;5024737;28;19996;-66
2023/05/24 10:06:19;;;;;;;;;;;11.40;99.90;;;;;;5032187;28;20000;-67
2023/05/24 10:08:47;;;;;;;;;;;11.50;99.90;;;;;;5024758;28;19921;-67
2023/05/24 10:11:15;;;;;;;;;;;11.50;99.90;;;;;;5024965;28;19922;-66
2023/05/24 10:13:42;;;;;;;;;;;11.50;99.90;;;;;;5005803;28;19928;-66
2023/05/24 10:16:09;;;;;;;;;;;11.60;99.90;;;;;;5024047;28;20208;-66
2023/05/24 10:18:37;;;;;;;;;;;11.70;99.90;;;;;;5024508;28;19956;-66
2023/05/24 10:21:06;;;;;;;;;;;11.80;99.90;;;;;;5021786;28;19928;-67
2023/05/24 10:23:33;;;;;;;;;;;11.90;99.90;;;;;;5024397;28;19996;-66
2023/05/24 10:26:03;;;;;;;;;;;12.00;99.90;;;;;;5029167;28;19921;-66
2023/05/24 10:28:30;;;;;;;;;;;12.00;99.90;;;;;;5043130;28;20233;-66
2023/05/24 10:31:02;;;;;;;;;;;11.90;99.90;;;;;;5028315;28;19984;-66
2023/05/24 10:33:29;;;;;;;;;;;12.00;99.90;;;;;;5024446;28;19952;-68
2023/05/24 10:35:58;;;;;;;;;;;12.10;99.90;;;;;;5023675;28;19984;-67
2023/05/24 10:38:26;;;;;;;;;;;12.20;99.90;;;;;;5022211;28;19922;-67
2023/05/24 10:40:52;;;;;;;;;;;12.20;99.90;;;;;;5024638;28;19922;-67
2023/05/24 10:43:19;;;;;;;;;;;12.20;99.90;;;;;;5024828;28;19988;-66
2023/05/24 10:45:48;;;;;;;;;;;12.20;99.90;;;;;;5024288;28;20152;-66
2023/05/24 10:48:35;;;;;;;;;;;12.30;99.90;;;;;;5019282;28;20209;-66
2023/05/24 10:51:23;;;;;;;;;;;12.40;99.90;;;;;;5024957;28;19984;-67
2023/05/24 10:53:50;;;;;;;;;;;12.50;99.90;;;;;;5024074;28;19921;-67
2023/05/24 10:56:19;;;;;;;;;;;12.50;99.90;;;;;;5020412;28;19921;-66
2023/05/24 10:58:58;;;;;;;;;;;12.60;99.90;;;;;;5022531;28;19922;-66
2023/05/24 11:01:25;;;;;;;;;;;12.60;99.90;;;;;;5024239;28;19927;-67
2023/05/24 11:03:52;;;;;;;;;;;12.70;99.90;;;;;;5024323;28;19968;-67
2023/05/24 11:06:40;;;;;;;;;;;12.90;99.90;;;;;;5023945;28;19988;-66
2023/05/24 11:09:18;;;;;;;;;;;13.00;99.90;;;;;;5071976;28;19985;-68
2023/05/24 11:11:46;;;;;;;;;;;13.30;99.90;;;;;;5040271;28;19928;-68
2023/05/24 11:14:14;;;;;;;;;;;13.60;99.90;;;;;;5040545;28;20144;-68
2023/05/24 11:16:44;;;;;;;;;;;13.90;99.90;;;;;;5039457;28;19928;-68
2023/05/24 11:19:11;;;;;;;;;;;14.20;99.90;;;;;;5040298;28;19926;-70
2023/05/24 11:21:39;;;;;;;;;;;14.60;99.90;;;;;;5038448;28;20232;-69
2023/05/24 11:24:07;;;;;;;;;;;15.10;99.90;;;;;;5040507;28;19968;-66
2023/05/24 11:26:36;;;;;;;;;;;15.50;99.90;;;;;;5039336;28;19959;-66
2023/05/24 11:29:04;;;;;;;;;;;15.70;99.90;;;;;;5040031;28;19960;-67
2023/05/24 11:31:30;;;;;;;;;;;15.80;99.90;;;;;;5037675;28;19925;-67
2023/05/24 11:33:57;;;;;;;;;;;15.90;99.90;;;;;;5039974;28;20167;-67
2023/05/24 11:36:24;;;;;;;;;;;15.90;99.90;;;;;;5039719;28;20165;-65
2023/05/24 11:38:53;;;;;;;;;;;15.80;99.90;;;;;;5040206;28;19988;-66
2023/05/24 11:41:20;;;;;;;;;;;15.80;99.90;;;;;;5039432;28;20246;-67
2023/05/24 11:43:48;;;;;;;;;;;16.00;99.90;;;;;;5040107;28;20101;-66
2023/05/24 11:46:15;;;;;;;;;;;16.20;99.90;;;;;;5039272;28;19928;-66
2023/05/24 11:48:42;;;;;;;;;;;16.30;99.90;;;;;;5039766;28;20197;-66
2023/05/24 11:51:08;;;;;;;;;;;16.30;99.90;;;;;;5034938;28;20004;-69
2023/05/24 11:53:35;;;;;;;;;;;16.40;99.90;;;;;;5036720;28;20209;-66
2023/05/24 11:56:03;;;;;;;;;;;16.30;99.90;;;;;;5038529;28;19921;-68
2023/05/24 11:58:38;;;;;;;;;;;16.10;99.90;;;;;;5038656;28;19922;-68
2023/05/24 12:01:06;;;;;;;;;;;16.00;99.90;;;;;;5039045;28;20256;-67
2023/05/24 12:03:33;;;;;;;;;;;16.10;99.90;;;;;;5038737;28;20001;-69
2023/05/24 12:06:00;;;;;;;;;;;16.30;99.90;;;;;;5038780;28;19984;-67
2023/05/24 12:08:27;;;;;;;;;;;16.20;99.90;;;;;;5037614;28;19984;-67
2023/05/24 12:10:54;;;;;;;;;;;16.50;99.90;;;;;;5039712;28;19925;-66
2023/05/24 12:13:22;;;;;;;;;;;16.70;99.90;;;;;;5036275;28;20221;-69
2023/05/24 12:15:49;;;;;;;;;;;16.90;99.90;;;;;;5039377;28;19922;-66
2023/05/24 12:18:21;;;;;;;;;;;17.20;99.90;;;;;;5038592;28;19929;-66
2023/05/24 12:20:48;;;;;;;;;;;17.60;99.90;;;;;;5025875;28;19996;-66
2023/05/24 12:23:15;;;;;;;;;;;17.40;99.90;;;;;;5025661;28;20008;-67
2023/05/24 12:25:43;;;;;;;;;;;17.50;99.90;;;;;;5025839;28;19921;-66
2023/05/24 12:28:09;;;;;;;;;;;17.70;99.90;;;;;;5025687;28;19976;-66
2023/05/24 12:30:41;;;;;;;;;;;17.60;99.90;;;;;;5025779;28;19961;-66
2023/05/24 12:33:08;;;;;;;;;;;17.40;99.90;;;;;;5025607;28;19988;-66
2023/05/24 12:35:37;;;;;;;;;;;17.30;99.90;;;;;;5022991;28;19926;-66
2023/05/24 12:38:03;;;;;;;;;;;17.00;99.90;;;;;;5025212;28;19993;-66
2023/05/24 12:40:33;;;;;;;;;;;16.80;99.90;;;;;;5025835;28;19988;-66
2023/05/24 12:42:59;;;;;;;;;;;16.90;99.90;;;;;;5025879;28;19929;-66
2023/05/24 12:45:27;;;;;;;;;;;17.10;99.90;;;;;;5024939;28;20174;-66
2023/05/24 12:47:53;;;;;;;;;;;17.40;99.90;;;;;;5024795;28;19996;-67
2023/05/24 12:50:21;;;;;;;;;;;17.10;99.90;;;;;;5025197;28;20268;-65
2023/05/24 12:52:51;;;;;;;;;;;16.60;99.90;;;;;;5012700;28;19928;-66
2023/05/24 12:55:18;;;;;;;;;;;16.70;99.90;;;;;;5015227;28;19949;-66
2023/05/24 12:57:51;;;;;;;;;;;16.90;99.90;;;;;;5024204;28;19928;-66
2023/05/24 13:00:19;;;;;;;;;;;17.30;99.90;;;;;;5025503;28;19984;-67
2023/05/24 13:02:46;;;;;;;;;;;17.60;99.90;;;;;;5025340;28;19987;-66
2023/05/24 13:05:13;;;;;;;;;;;17.90;99.90;;;;;;5024781;28;19928;-66
2023/05/24 13:07:40;;;;;;;;;;;18.10;99.90;;;;;;5023557;28;19960;-65
2023/05/24 13:10:08;;;;;;;;;;;18.20;99.90;;;;;;5025253;28;19964;-66
2023/05/24 13:12:35;;;;;;;;;;;18.20;99.90;;;;;;5023604;28;20205;-66
2023/05/24 13:15:03;;;;;;;;;;;18.30;97.40;;;;;;5023629;28;19928;-66
2023/05/24 13:17:30;;;;;;;;;;;18.30;99.30;;;;;;5023742;28;19922;-66
2023/05/24 13:19:58;;;;;;;;;;;18.40;99.20;;;;;;5024750;28;19953;-66
2023/05/24 13:22:24;;;;;;;;;;;18.60;99.90;;;;;;5024880;28;19936;-66
2023/05/24 13:24:52;;;;;;;;;;;18.90;99.90;;;;;;5022343;28;19992;-66
2023/05/24 13:27:20;;;;;;;;;;;19.20;98.90;;;;;;5021734;28;19988;-67
2023/05/24 13:29:47;;;;;;;;;;;19.50;99.40;;;;;;5024497;28;19987;-66
2023/05/24 13:32:13;;;;;;;;;;;19.70;96.90;;;;;;5023961;28;19988;-67
2023/05/24 13:34:40;;;;;;;;;;;19.80;95.50;;;;;;5024833;28;19988;-66
2023/05/24 13:37:07;;;;;;;;;;;19.80;95.60;;;;;;5023989;28;20422;-66
2023/05/24 13:39:35;;;;;;;;;;;19.70;99.10;;;;;;5024891;28;19921;-66
2023/05/24 13:42:02;;;;;;;;;;;19.80;98.10;;;;;;5024771;28;19921;-68
2023/05/24 13:44:31;;;;;;;;;;;20.00;97.50;;;;;;5024416;28;19960;-67
2023/05/24 13:46:57;;;;;;;;;;;20.10;98.40;;;;;;5020502;28;19921;-67
2023/05/24 13:49:24;;;;;;;;;;;20.40;96.90;;;;;;5019523;28;19993;-66
2023/05/24 13:51:52;;;;;;;;;;;20.70;94.40;;;;;;5023926;28;20176;-66
2023/05/24 13:54:18;;;;;;;;;;;20.70;93.80;;;;;;5024023;28;19927;-67
2023/05/24 13:56:47;;;;;;;;;;;20.40;93.80;;;;;;5022874;28;19949;-67
2023/05/24 13:59:14;;;;;;;;;;;20.00;94.20;;;;;;5024538;28;19921;-66
2023/05/24 14:01:43;;;;;;;;;;;19.70;95.60;;;;;;5020811;28;20223;-68
2023/05/24 14:04:10;;;;;;;;;;;19.50;95.10;;;;;;5024694;28;19944;-66
2023/05/24 14:06:37;;;;;;;;;;;19.50;95.60;;;;;;5022685;28;19928;-67
2023/05/24 14:09:05;;;;;;;;;;;19.60;96.00;;;;;;5022698;28;20144;-67
2023/05/24 14:11:32;;;;;;;;;;;19.70;98.90;;;;;;5023324;28;19968;-67
2023/05/24 14:13:59;;;;;;;;;;;20.00;99.90;;;;;;5022930;28;19921;-67
2023/05/24 14:16:26;;;;;;;;;;;19.90;98.80;;;;;;5023591;28;19988;-69
2023/05/24 14:18:54;;;;;;;;;;;19.60;98.30;;;;;;5023457;28;19945;-66
2023/05/24 14:21:22;;;;;;;;;;;19.40;97.40;;;;;;5023846;28;20218;-67
2023/05/24 14:23:49;;;;;;;;;;;19.30;98.20;;;;;;5021116;28;19921;-66